CYQF

Red Deer Regional Airport

Red Deer, Alberta, Canada
METAR CYQF 211500Z 02003KT 15SM BKN090 BKN230 02/00 A2972 RMK AC6CI1 SLP098
Observed Flight Rules
Apr-21 @ 15:00 UTC (34 minutes ago) Visual Flight Rules
Wind Visibility Clouds
20° at 3 knots 15 miles
  • Broken at 9,000' AGL
  • Broken at 23,000' AGL
Temperatures Readings
Current 2°C / 36°F
Dewpoint 0°C / 32°F
Humidity 87%
Altimeter 29.72" Hg
Pressure 1009.8 hPa
Elevation 905
METAR CYQF 211500Z 02003KT 15SM BKN090 BKN230 02/00 A2972 RMK AC6CI1 SLP098
Observed Flight Rules
Apr-21 @ 15:00 UTC
(34 minutes ago)
VFR
Wind Visibility
20° at 3 knots 15 miles
Clouds
  • Broken at 9,000' AGL
  • Broken at 23,000' AGL
Temperature Dewpoint
2°C / 36°F 0°C / 32°F
Humidity Altimeter Pressure
87% 29.72" Hg 1009.8 hPa